sensor_id;sensor_type;location;lat;lon;timestamp;P1;durP1;ratioP1;P2;durP2;ratioP2
21800;SDS011;11062;51.164;16.924;2023-07-13T00:02:16;28.67;;;6.78;;
21800;SDS011;11062;51.164;16.924;2023-07-13T00:04:42;38.22;;;7.75;;
21800;SDS011;11062;51.164;16.924;2023-07-13T00:07:11;56.63;;;9.07;;
21800;SDS011;11062;51.164;16.924;2023-07-13T00:09:39;47.15;;;8.70;;
21800;SDS011;11062;51.164;16.924;2023-07-13T00:12:19;49.65;;;8.65;;
21800;SDS011;11062;51.164;16.924;2023-07-13T00:14:51;39.75;;;7.93;;
21800;SDS011;11062;51.164;16.924;2023-07-13T00:17:20;54.50;;;8.98;;
21800;SDS011;11062;51.164;16.924;2023-07-13T00:19:46;68.65;;;9.82;;
21800;SDS011;11062;51.164;16.924;2023-07-13T00:22:13;50.63;;;9.27;;
21800;SDS011;11062;51.164;16.924;2023-07-13T00:35:22;51.03;;;9.38;;
21800;SDS011;11062;51.164;16.924;2023-07-13T00:37:52;28.42;;;7.20;;
21800;SDS011;11062;51.164;16.924;2023-07-13T00:40:24;34.13;;;7.78;;
21800;SDS011;11062;51.164;16.924;2023-07-13T00:43:02;21.83;;;6.90;;
21800;SDS011;11062;51.164;16.924;2023-07-13T00:47:56;32.05;;;7.75;;
21800;SDS011;11062;51.164;16.924;2023-07-13T00:50:26;38.95;;;8.68;;
21800;SDS011;11062;51.164;16.924;2023-07-13T00:52:56;35.03;;;8.57;;
21800;SDS011;11062;51.164;16.924;2023-07-13T00:55:24;38.92;;;8.55;;
21800;SDS011;11062;51.164;16.924;2023-07-13T00:57:51;70.90;;;10.52;;
21800;SDS011;11062;51.164;16.924;2023-07-13T01:05:28;136.65;;;17.42;;
21800;SDS011;11062;51.164;16.924;2023-07-13T01:07:54;64.70;;;11.25;;
21800;SDS011;11062;51.164;16.924;2023-07-13T01:10:24;29.92;;;7.75;;
21800;SDS011;11062;51.164;16.924;2023-07-13T01:12:54;34.72;;;7.90;;
21800;SDS011;11062;51.164;16.924;2023-07-13T01:15:44;29.05;;;8.43;;
21800;SDS011;11062;51.164;16.924;2023-07-13T01:18:14;30.10;;;6.80;;
21800;SDS011;11062;51.164;16.924;2023-07-13T01:23:22;33.42;;;7.60;;
21800;SDS011;11062;51.164;16.924;2023-07-13T01:25:51;29.25;;;7.35;;
21800;SDS011;11062;51.164;16.924;2023-07-13T01:28:27;30.70;;;7.45;;
21800;SDS011;11062;51.164;16.924;2023-07-13T01:30:59;33.67;;;7.93;;
21800;SDS011;11062;51.164;16.924;2023-07-13T01:38:38;297.95;;;28.10;;
21800;SDS011;11062;51.164;16.924;2023-07-13T01:41:33;62.60;;;13.68;;
21800;SDS011;11062;51.164;16.924;2023-07-13T01:44:00;47.83;;;10.30;;
21800;SDS011;11062;51.164;16.924;2023-07-13T01:46:25;105.55;;;24.98;;
21800;SDS011;11062;51.164;16.924;2023-07-13T01:48:55;49.03;;;8.77;;
21800;SDS011;11062;51.164;16.924;2023-07-13T01:51:24;44.25;;;8.95;;
21800;SDS011;11062;51.164;16.924;2023-07-13T01:53:50;46.05;;;8.88;;
21800;SDS011;11062;51.164;16.924;2023-07-13T01:56:16;86.85;;;56.30;;
21800;SDS011;11062;51.164;16.924;2023-07-13T01:58:42;168.80;;;16.33;;
21800;SDS011;11062;51.164;16.924;2023-07-13T02:01:08;99.78;;;18.75;;
21800;SDS011;11062;51.164;16.924;2023-07-13T02:03:36;82.95;;;9.90;;
21800;SDS011;11062;51.164;16.924;2023-07-13T02:06:02;66.85;;;14.40;;
21800;SDS011;11062;51.164;16.924;2023-07-13T02:08:32;49.50;;;9.07;;
21800;SDS011;11062;51.164;16.924;2023-07-13T02:11:02;47.60;;;8.65;;
21800;SDS011;11062;51.164;16.924;2023-07-13T02:13:28;28.77;;;7.05;;
21800;SDS011;11062;51.164;16.924;2023-07-13T02:15:57;38.67;;;8.20;;
21800;SDS011;11062;51.164;16.924;2023-07-13T02:18:23;45.90;;;9.98;;
21800;SDS011;11062;51.164;16.924;2023-07-13T02:20:49;74.65;;;11.50;;
21800;SDS011;11062;51.164;16.924;2023-07-13T02:34:33;60.40;;;30.58;;
21800;SDS011;11062;51.164;16.924;2023-07-13T02:40:47;99.50;;;79.25;;
21800;SDS011;11062;51.164;16.924;2023-07-13T02:54:48;100.28;;;32.45;;
21800;SDS011;11062;51.164;16.924;2023-07-13T02:57:15;136.95;;;71.18;;
21800;SDS011;11062;51.164;16.924;2023-07-13T02:59:45;94.55;;;67.28;;
21800;SDS011;11062;51.164;16.924;2023-07-13T03:02:11;76.68;;;58.95;;
21800;SDS011;11062;51.164;16.924;2023-07-13T03:04:37;102.45;;;70.28;;
21800;SDS011;11062;51.164;16.924;2023-07-13T03:07:04;187.77;;;110.78;;
21800;SDS011;11062;51.164;16.924;2023-07-13T03:09:32;226.60;;;112.32;;
21800;SDS011;11062;51.164;16.924;2023-07-13T03:11:59;166.15;;;103.63;;
21800;SDS011;11062;51.164;16.924;2023-07-13T03:14:25;128.15;;;74.88;;
21800;SDS011;11062;51.164;16.924;2023-07-13T03:16:51;159.55;;;97.85;;
21800;SDS011;11062;51.164;16.924;2023-07-13T03:19:18;177.85;;;105.05;;
21800;SDS011;11062;51.164;16.924;2023-07-13T03:21:44;209.48;;;101.40;;
21800;SDS011;11062;51.164;16.924;2023-07-13T03:24:10;147.00;;;92.53;;
21800;SDS011;11062;51.164;16.924;2023-07-13T03:31:47;217.48;;;100.70;;
21800;SDS011;11062;51.164;16.924;2023-07-13T03:34:13;87.13;;;11.80;;
21800;SDS011;11062;51.164;16.924;2023-07-13T03:36:39;60.55;;;11.73;;
21800;SDS011;11062;51.164;16.924;2023-07-13T03:39:05;205.10;;;96.80;;
21800;SDS011;11062;51.164;16.924;2023-07-13T03:41:33;162.38;;;83.95;;
21800;SDS011;11062;51.164;16.924;2023-07-13T03:43:59;252.32;;;111.97;;
21800;SDS011;11062;51.164;16.924;2023-07-13T03:46:25;224.25;;;114.93;;
21800;SDS011;11062;51.164;16.924;2023-07-13T03:48:51;165.93;;;71.18;;
21800;SDS011;11062;51.164;16.924;2023-07-13T03:51:17;195.63;;;111.78;;
21800;SDS011;11062;51.164;16.924;2023-07-13T03:53:43;96.13;;;18.17;;
21800;SDS011;11062;51.164;16.924;2023-07-13T03:56:11;209.48;;;18.80;;
21800;SDS011;11062;51.164;16.924;2023-07-13T03:58:39;70.00;;;10.02;;
21800;SDS011;11062;51.164;16.924;2023-07-13T04:01:06;51.60;;;10.15;;
21800;SDS011;11062;51.164;16.924;2023-07-13T04:03:34;52.42;;;9.65;;
21800;SDS011;11062;51.164;16.924;2023-07-13T04:06:01;54.13;;;9.85;;
21800;SDS011;11062;51.164;16.924;2023-07-13T04:08:29;69.65;;;11.45;;
21800;SDS011;11062;51.164;16.924;2023-07-13T04:10:57;51.90;;;13.02;;
21800;SDS011;11062;51.164;16.924;2023-07-13T04:13:23;53.92;;;9.63;;
21800;SDS011;11062;51.164;16.924;2023-07-13T04:15:49;42.88;;;8.90;;
21800;SDS011;11062;51.164;16.924;2023-07-13T04:18:16;63.85;;;10.35;;
21800;SDS011;11062;51.164;16.924;2023-07-13T04:20:42;51.38;;;8.05;;
21800;SDS011;11062;51.164;16.924;2023-07-13T04:23:07;328.08;;;123.68;;
21800;SDS011;11062;51.164;16.924;2023-07-13T04:25:33;359.80;;;122.47;;
21800;SDS011;11062;51.164;16.924;2023-07-13T04:27:59;332.30;;;118.18;;
21800;SDS011;11062;51.164;16.924;2023-07-13T04:30:26;321.38;;;117.45;;
21800;SDS011;11062;51.164;16.924;2023-07-13T04:32:52;339.08;;;121.03;;
21800;SDS011;11062;51.164;16.924;2023-07-13T04:35:21;344.60;;;125.15;;
21800;SDS011;11062;51.164;16.924;2023-07-13T04:37:50;334.33;;;123.95;;
21800;SDS011;11062;51.164;16.924;2023-07-13T04:40:16;266.33;;;112.20;;
21800;SDS011;11062;51.164;16.924;2023-07-13T04:42:44;340.63;;;119.13;;
21800;SDS011;11062;51.164;16.924;2023-07-13T04:45:11;344.35;;;122.35;;
21800;SDS011;11062;51.164;16.924;2023-07-13T04:47:37;286.90;;;122.78;;
21800;SDS011;11062;51.164;16.924;2023-07-13T04:50:03;242.88;;;109.43;;
21800;SDS011;11062;51.164;16.924;2023-07-13T04:52:30;347.42;;;120.53;;
21800;SDS011;11062;51.164;16.924;2023-07-13T04:54:57;375.05;;;117.28;;
21800;SDS011;11062;51.164;16.924;2023-07-13T04:57:23;347.30;;;120.30;;
21800;SDS011;11062;51.164;16.924;2023-07-13T04:59:49;129.73;;;71.65;;
21800;SDS011;11062;51.164;16.924;2023-07-13T05:02:15;194.55;;;96.25;;
21800;SDS011;11062;51.164;16.924;2023-07-13T05:04:41;316.58;;;123.55;;
21800;SDS011;11062;51.164;16.924;2023-07-13T05:07:07;266.88;;;98.95;;
21800;SDS011;11062;51.164;16.924;2023-07-13T05:09:32;296.77;;;119.05;;
21800;SDS011;11062;51.164;16.924;2023-07-13T05:11:58;171.90;;;91.03;;
21800;SDS011;11062;51.164;16.924;2023-07-13T05:14:24;179.88;;;95.15;;
21800;SDS011;11062;51.164;16.924;2023-07-13T05:16:50;161.40;;;87.10;;
21800;SDS011;11062;51.164;16.924;2023-07-13T05:19:19;217.60;;;103.00;;
21800;SDS011;11062;51.164;16.924;2023-07-13T05:21:47;189.93;;;97.38;;
21800;SDS011;11062;51.164;16.924;2023-07-13T05:24:13;127.03;;;78.13;;
21800;SDS011;11062;51.164;16.924;2023-07-13T05:26:38;121.22;;;74.20;;
21800;SDS011;11062;51.164;16.924;2023-07-13T05:29:04;117.03;;;63.22;;
21800;SDS011;11062;51.164;16.924;2023-07-13T05:31:30;200.02;;;95.10;;
21800;SDS011;11062;51.164;16.924;2023-07-13T05:33:56;175.88;;;89.47;;
21800;SDS011;11062;51.164;16.924;2023-07-13T05:36:22;223.15;;;104.70;;
21800;SDS011;11062;51.164;16.924;2023-07-13T05:38:48;263.85;;;118.93;;
21800;SDS011;11062;51.164;16.924;2023-07-13T05:41:13;68.38;;;8.30;;
21800;SDS011;11062;51.164;16.924;2023-07-13T05:43:39;62.30;;;8.05;;
21800;SDS011;11062;51.164;16.924;2023-07-13T05:46:05;48.28;;;6.97;;
21800;SDS011;11062;51.164;16.924;2023-07-13T05:48:31;55.72;;;7.50;;
21800;SDS011;11062;51.164;16.924;2023-07-13T05:50:56;42.42;;;6.15;;
21800;SDS011;11062;51.164;16.924;2023-07-13T05:53:22;52.83;;;6.97;;
21800;SDS011;11062;51.164;16.924;2023-07-13T05:55:48;76.00;;;9.95;;
21800;SDS011;11062;51.164;16.924;2023-07-13T05:58:18;65.75;;;8.52;;
21800;SDS011;11062;51.164;16.924;2023-07-13T06:00:45;78.80;;;29.58;;
21800;SDS011;11062;51.164;16.924;2023-07-13T06:03:14;88.95;;;17.67;;
21800;SDS011;11062;51.164;16.924;2023-07-13T06:05:49;60.45;;;25.95;;
21800;SDS011;11062;51.164;16.924;2023-07-13T06:08:15;154.20;;;63.58;;
21800;SDS011;11062;51.164;16.924;2023-07-13T06:10:41;174.05;;;83.05;;
21800;SDS011;11062;51.164;16.924;2023-07-13T06:13:07;65.05;;;15.80;;
21800;SDS011;11062;51.164;16.924;2023-07-13T06:15:33;135.55;;;75.40;;
21800;SDS011;11062;51.164;16.924;2023-07-13T06:17:59;128.57;;;68.72;;
21800;SDS011;11062;51.164;16.924;2023-07-13T06:20:24;93.47;;;11.18;;
21800;SDS011;11062;51.164;16.924;2023-07-13T06:22:50;38.03;;;6.07;;
21800;SDS011;11062;51.164;16.924;2023-07-13T06:25:16;66.50;;;7.90;;
21800;SDS011;11062;51.164;16.924;2023-07-13T06:27:42;42.30;;;6.93;;
21800;SDS011;11062;51.164;16.924;2023-07-13T06:30:08;114.60;;;50.92;;
21800;SDS011;11062;51.164;16.924;2023-07-13T06:32:35;227.60;;;103.38;;
21800;SDS011;11062;51.164;16.924;2023-07-13T06:35:01;238.27;;;113.63;;
21800;SDS011;11062;51.164;16.924;2023-07-13T06:37:27;214.40;;;105.10;;
21800;SDS011;11062;51.164;16.924;2023-07-13T06:39:52;136.65;;;65.63;;
21800;SDS011;11062;51.164;16.924;2023-07-13T06:42:18;57.95;;;12.52;;
21800;SDS011;11062;51.164;16.924;2023-07-13T06:44:44;113.72;;;12.77;;
21800;SDS011;11062;51.164;16.924;2023-07-13T06:47:10;136.25;;;75.55;;
21800;SDS011;11062;51.164;16.924;2023-07-13T06:49:35;164.05;;;86.30;;
21800;SDS011;11062;51.164;16.924;2023-07-13T06:52:01;180.18;;;94.00;;
21800;SDS011;11062;51.164;16.924;2023-07-13T06:54:27;173.77;;;87.80;;
21800;SDS011;11062;51.164;16.924;2023-07-13T06:56:53;282.27;;;112.53;;
21800;SDS011;11062;51.164;16.924;2023-07-13T06:59:19;197.05;;;106.55;;
21800;SDS011;11062;51.164;16.924;2023-07-13T07:01:44;234.82;;;113.22;;
21800;SDS011;11062;51.164;16.924;2023-07-13T07:04:10;199.18;;;100.80;;
21800;SDS011;11062;51.164;16.924;2023-07-13T07:06:36;86.43;;;41.22;;
21800;SDS011;11062;51.164;16.924;2023-07-13T07:09:02;237.20;;;108.60;;
21800;SDS011;11062;51.164;16.924;2023-07-13T07:11:28;176.00;;;85.50;;
21800;SDS011;11062;51.164;16.924;2023-07-13T07:13:55;63.63;;;7.95;;
21800;SDS011;11062;51.164;16.924;2023-07-13T07:16:21;50.78;;;17.33;;
21800;SDS011;11062;51.164;16.924;2023-07-13T07:18:49;200.88;;;84.45;;
21800;SDS011;11062;51.164;16.924;2023-07-13T07:21:15;305.02;;;123.32;;
21800;SDS011;11062;51.164;16.924;2023-07-13T07:23:42;223.02;;;106.22;;
21800;SDS011;11062;51.164;16.924;2023-07-13T07:26:08;188.48;;;99.13;;
21800;SDS011;11062;51.164;16.924;2023-07-13T07:28:35;167.43;;;87.38;;
21800;SDS011;11062;51.164;16.924;2023-07-13T07:31:01;152.23;;;89.20;;
21800;SDS011;11062;51.164;16.924;2023-07-13T07:33:26;185.13;;;92.35;;
21800;SDS011;11062;51.164;16.924;2023-07-13T07:35:52;68.13;;;37.75;;
21800;SDS011;11062;51.164;16.924;2023-07-13T07:38:18;124.70;;;76.47;;
21800;SDS011;11062;51.164;16.924;2023-07-13T07:40:44;115.72;;;70.22;;
21800;SDS011;11062;51.164;16.924;2023-07-13T07:43:11;178.32;;;95.80;;
21800;SDS011;11062;51.164;16.924;2023-07-13T07:45:37;204.90;;;99.88;;
21800;SDS011;11062;51.164;16.924;2023-07-13T07:48:04;157.82;;;88.68;;
21800;SDS011;11062;51.164;16.924;2023-07-13T07:50:31;119.90;;;52.83;;
21800;SDS011;11062;51.164;16.924;2023-07-13T07:52:57;113.68;;;69.50;;
21800;SDS011;11062;51.164;16.924;2023-07-13T07:55:24;124.18;;;66.25;;
21800;SDS011;11062;51.164;16.924;2023-07-13T07:57:51;172.15;;;74.45;;
21800;SDS011;11062;51.164;16.924;2023-07-13T08:00:17;151.07;;;89.65;;
21800;SDS011;11062;51.164;16.924;2023-07-13T08:02:44;93.40;;;51.13;;
21800;SDS011;11062;51.164;16.924;2023-07-13T08:05:11;255.02;;;121.40;;
21800;SDS011;11062;51.164;16.924;2023-07-13T08:07:37;54.35;;;12.32;;
21800;SDS011;11062;51.164;16.924;2023-07-13T08:10:04;205.00;;;93.10;;
21800;SDS011;11062;51.164;16.924;2023-07-13T08:12:34;225.93;;;112.95;;
21800;SDS011;11062;51.164;16.924;2023-07-13T08:15:03;188.77;;;106.03;;
21800;SDS011;11062;51.164;16.924;2023-07-13T08:17:30;140.02;;;81.75;;
21800;SDS011;11062;51.164;16.924;2023-07-13T08:19:56;139.40;;;78.60;;
21800;SDS011;11062;51.164;16.924;2023-07-13T08:22:22;75.90;;;46.42;;
21800;SDS011;11062;51.164;16.924;2023-07-13T08:24:47;57.08;;;25.98;;
21800;SDS011;11062;51.164;16.924;2023-07-13T08:27:20;125.30;;;65.20;;
21800;SDS011;11062;51.164;16.924;2023-07-13T08:29:54;131.02;;;71.07;;
21800;SDS011;11062;51.164;16.924;2023-07-13T08:32:30;178.48;;;94.90;;
21800;SDS011;11062;51.164;16.924;2023-07-13T08:34:57;120.65;;;79.70;;
21800;SDS011;11062;51.164;16.924;2023-07-13T08:37:25;99.68;;;76.25;;
21800;SDS011;11062;51.164;16.924;2023-07-13T08:40:02;124.57;;;81.32;;
21800;SDS011;11062;51.164;16.924;2023-07-13T08:45:54;131.80;;;70.38;;
21800;SDS011;11062;51.164;16.924;2023-07-13T08:48:50;121.53;;;65.63;;
21800;SDS011;11062;51.164;16.924;2023-07-13T08:57:30;129.83;;;46.10;;
21800;SDS011;11062;51.164;16.924;2023-07-13T09:09:24;58.75;;;8.15;;
21800;SDS011;11062;51.164;16.924;2023-07-13T09:12:27;68.10;;;11.35;;
21800;SDS011;11062;51.164;16.924;2023-07-13T09:15:01;198.88;;;99.10;;
21800;SDS011;11062;51.164;16.924;2023-07-13T09:17:35;95.70;;;50.83;;
21800;SDS011;11062;51.164;16.924;2023-07-13T09:20:23;178.25;;;105.97;;
21800;SDS011;11062;51.164;16.924;2023-07-13T09:22:54;206.10;;;123.15;;
21800;SDS011;11062;51.164;16.924;2023-07-13T09:25:24;148.20;;;82.55;;
21800;SDS011;11062;51.164;16.924;2023-07-13T09:28:09;179.70;;;111.85;;
21800;SDS011;11062;51.164;16.924;2023-07-13T09:33:17;223.90;;;115.30;;
21800;SDS011;11062;51.164;16.924;2023-07-13T09:35:44;93.57;;;43.25;;
21800;SDS011;11062;51.164;16.924;2023-07-13T09:38:11;87.25;;;57.08;;
21800;SDS011;11062;51.164;16.924;2023-07-13T09:43:29;127.47;;;46.65;;
21800;SDS011;11062;51.164;16.924;2023-07-13T09:45:58;52.30;;;18.15;;
21800;SDS011;11062;51.164;16.924;2023-07-13T09:48:36;40.92;;;10.65;;
21800;SDS011;11062;51.164;16.924;2023-07-13T09:51:14;37.90;;;5.72;;
21800;SDS011;11062;51.164;16.924;2023-07-13T09:53:44;86.60;;;13.38;;
21800;SDS011;11062;51.164;16.924;2023-07-13T09:56:29;54.95;;;8.82;;
21800;SDS011;11062;51.164;16.924;2023-07-13T09:58:59;21.88;;;3.67;;
21800;SDS011;11062;51.164;16.924;2023-07-13T10:06:46;30.45;;;4.53;;
21800;SDS011;11062;51.164;16.924;2023-07-13T10:09:18;32.97;;;4.63;;
21800;SDS011;11062;51.164;16.924;2023-07-13T10:11:46;39.58;;;5.15;;
21800;SDS011;11062;51.164;16.924;2023-07-13T10:14:20;50.28;;;6.10;;
21800;SDS011;11062;51.164;16.924;2023-07-13T10:22:59;49.67;;;5.97;;
21800;SDS011;11062;51.164;16.924;2023-07-13T10:25:29;33.70;;;4.88;;
21800;SDS011;11062;51.164;16.924;2023-07-13T10:41:04;73.47;;;45.05;;
21800;SDS011;11062;51.164;16.924;2023-07-13T10:43:37;77.88;;;8.73;;
21800;SDS011;11062;51.164;16.924;2023-07-13T10:46:11;44.03;;;6.07;;
21800;SDS011;11062;51.164;16.924;2023-07-13T10:48:43;58.40;;;6.75;;
21800;SDS011;11062;51.164;16.924;2023-07-13T10:51:13;68.90;;;8.45;;
21800;SDS011;11062;51.164;16.924;2023-07-13T10:53:43;47.58;;;5.80;;
21800;SDS011;11062;51.164;16.924;2023-07-13T10:58:41;94.20;;;10.38;;
21800;SDS011;11062;51.164;16.924;2023-07-13T11:01:12;145.77;;;99.05;;
21800;SDS011;11062;51.164;16.924;2023-07-13T11:06:16;46.58;;;5.85;;
21800;SDS011;11062;51.164;16.924;2023-07-13T11:12:02;95.82;;;13.23;;
21800;SDS011;11062;51.164;16.924;2023-07-13T11:25:21;60.80;;;7.78;;
21800;SDS011;11062;51.164;16.924;2023-07-13T11:35:53;82.15;;;30.17;;
21800;SDS011;11062;51.164;16.924;2023-07-13T11:38:23;45.30;;;5.80;;
21800;SDS011;11062;51.164;16.924;2023-07-13T11:41:06;48.50;;;6.43;;
21800;SDS011;11062;51.164;16.924;2023-07-13T11:43:35;56.47;;;6.57;;
21800;SDS011;11062;51.164;16.924;2023-07-13T11:49:04;42.67;;;4.97;;
21800;SDS011;11062;51.164;16.924;2023-07-13T11:51:32;105.13;;;13.35;;
21800;SDS011;11062;51.164;16.924;2023-07-13T11:54:10;172.05;;;99.78;;
21800;SDS011;11062;51.164;16.924;2023-07-13T11:56:50;54.60;;;6.25;;
21800;SDS011;11062;51.164;16.924;2023-07-13T11:59:16;83.55;;;50.95;;
21800;SDS011;11062;51.164;16.924;2023-07-13T12:01:52;75.45;;;9.18;;
21800;SDS011;11062;51.164;16.924;2023-07-13T12:04:26;62.75;;;21.00;;
21800;SDS011;11062;51.164;16.924;2023-07-13T12:07:04;171.25;;;124.32;;
21800;SDS011;11062;51.164;16.924;2023-07-13T12:09:43;169.93;;;84.97;;
21800;SDS011;11062;51.164;16.924;2023-07-13T12:12:14;130.90;;;49.80;;
21800;SDS011;11062;51.164;16.924;2023-07-13T12:14:43;114.78;;;57.58;;
21800;SDS011;11062;51.164;16.924;2023-07-13T12:17:18;60.90;;;19.88;;
21800;SDS011;11062;51.164;16.924;2023-07-13T12:19:47;49.25;;;5.63;;
21800;SDS011;11062;51.164;16.924;2023-07-13T12:22:13;63.20;;;7.93;;
21800;SDS011;11062;51.164;16.924;2023-07-13T12:24:41;39.85;;;4.82;;
21800;SDS011;11062;51.164;16.924;2023-07-13T12:27:19;55.13;;;6.72;;
21800;SDS011;11062;51.164;16.924;2023-07-13T12:29:52;68.15;;;17.40;;
21800;SDS011;11062;51.164;16.924;2023-07-13T12:32:24;43.58;;;6.55;;
21800;SDS011;11062;51.164;16.924;2023-07-13T12:34:52;36.92;;;10.70;;
21800;SDS011;11062;51.164;16.924;2023-07-13T12:37:25;47.65;;;12.52;;
21800;SDS011;11062;51.164;16.924;2023-07-13T12:39:53;47.40;;;5.95;;
21800;SDS011;11062;51.164;16.924;2023-07-13T12:42:26;91.30;;;9.98;;
21800;SDS011;11062;51.164;16.924;2023-07-13T12:47:50;34.08;;;4.63;;
21800;SDS011;11062;51.164;16.924;2023-07-13T12:50:37;68.18;;;7.63;;
21800;SDS011;11062;51.164;16.924;2023-07-13T12:53:15;35.17;;;4.60;;
21800;SDS011;11062;51.164;16.924;2023-07-13T12:55:55;56.47;;;6.55;;
21800;SDS011;11062;51.164;16.924;2023-07-13T13:21:00;57.03;;;7.03;;
21800;SDS011;11062;51.164;16.924;2023-07-13T13:23:35;15.73;;;3.13;;
21800;SDS011;11062;51.164;16.924;2023-07-13T13:26:17;32.63;;;4.88;;
21800;SDS011;11062;51.164;16.924;2023-07-13T13:34:42;243.80;;;23.13;;
21800;SDS011;11062;51.164;16.924;2023-07-13T14:27:39;18.98;;;3.00;;
21800;SDS011;11062;51.164;16.924;2023-07-13T14:30:13;43.05;;;5.15;;
21800;SDS011;11062;51.164;16.924;2023-07-13T14:32:47;26.20;;;3.50;;
21800;SDS011;11062;51.164;16.924;2023-07-13T14:35:19;25.55;;;3.95;;
21800;SDS011;11062;51.164;16.924;2023-07-13T14:37:49;21.60;;;3.20;;
21800;SDS011;11062;51.164;16.924;2023-07-13T14:40:23;37.20;;;4.70;;
21800;SDS011;11062;51.164;16.924;2023-07-13T14:42:56;20.85;;;3.35;;
21800;SDS011;11062;51.164;16.924;2023-07-13T14:45:27;38.75;;;4.78;;
21800;SDS011;11062;51.164;16.924;2023-07-13T14:48:12;61.58;;;6.47;;
21800;SDS011;11062;51.164;16.924;2023-07-13T14:50:44;56.17;;;6.22;;
21800;SDS011;11062;51.164;16.924;2023-07-13T14:53:30;30.90;;;3.95;;
21800;SDS011;11062;51.164;16.924;2023-07-13T14:55:56;43.92;;;4.97;;
21800;SDS011;11062;51.164;16.924;2023-07-13T14:58:27;74.93;;;8.30;;
21800;SDS011;11062;51.164;16.924;2023-07-13T15:00:54;40.72;;;5.25;;
21800;SDS011;11062;51.164;16.924;2023-07-13T15:03:23;79.25;;;8.70;;
21800;SDS011;11062;51.164;16.924;2023-07-13T15:05:53;70.97;;;7.82;;
21800;SDS011;11062;51.164;16.924;2023-07-13T15:08:21;37.08;;;4.63;;
21800;SDS011;11062;51.164;16.924;2023-07-13T15:10:49;25.92;;;3.70;;
21800;SDS011;11062;51.164;16.924;2023-07-13T15:13:19;32.40;;;4.35;;
21800;SDS011;11062;51.164;16.924;2023-07-13T15:15:52;42.10;;;5.22;;
21800;SDS011;11062;51.164;16.924;2023-07-13T15:18:23;30.00;;;3.93;;
21800;SDS011;11062;51.164;16.924;2023-07-13T15:20:55;37.97;;;4.75;;
21800;SDS011;11062;51.164;16.924;2023-07-13T15:23:27;38.95;;;4.78;;
21800;SDS011;11062;51.164;16.924;2023-07-13T15:25:56;17.77;;;3.33;;
21800;SDS011;11062;51.164;16.924;2023-07-13T15:28:23;29.45;;;3.88;;
21800;SDS011;11062;51.164;16.924;2023-07-13T15:30:51;51.58;;;6.55;;
21800;SDS011;11062;51.164;16.924;2023-07-13T15:35:50;28.08;;;4.18;;
21800;SDS011;11062;51.164;16.924;2023-07-13T15:38:19;34.30;;;4.78;;
21800;SDS011;11062;51.164;16.924;2023-07-13T15:40:47;32.97;;;4.32;;
21800;SDS011;11062;51.164;16.924;2023-07-13T15:43:18;54.15;;;6.82;;
21800;SDS011;11062;51.164;16.924;2023-07-13T15:46:08;31.67;;;4.55;;
21800;SDS011;11062;51.164;16.924;2023-07-13T15:48:35;38.17;;;5.10;;
21800;SDS011;11062;51.164;16.924;2023-07-13T15:51:04;30.10;;;4.70;;
21800;SDS011;11062;51.164;16.924;2023-07-13T15:53:35;32.50;;;4.95;;
21800;SDS011;11062;51.164;16.924;2023-07-13T15:56:37;44.03;;;7.75;;
21800;SDS011;11062;51.164;16.924;2023-07-13T15:59:03;29.65;;;4.70;;
21800;SDS011;11062;51.164;16.924;2023-07-13T16:01:29;69.50;;;8.45;;
21800;SDS011;11062;51.164;16.924;2023-07-13T16:03:57;49.35;;;6.05;;
21800;SDS011;11062;51.164;16.924;2023-07-13T16:06:34;21.15;;;3.72;;
21800;SDS011;11062;51.164;16.924;2023-07-13T16:09:07;38.38;;;5.22;;
21800;SDS011;11062;51.164;16.924;2023-07-13T16:11:51;36.42;;;5.15;;
21800;SDS011;11062;51.164;16.924;2023-07-13T16:14:17;44.67;;;5.65;;
21800;SDS011;11062;51.164;16.924;2023-07-13T16:16:45;48.95;;;6.28;;
21800;SDS011;11062;51.164;16.924;2023-07-13T16:19:11;54.65;;;6.60;;
21800;SDS011;11062;51.164;16.924;2023-07-13T16:21:44;85.25;;;9.38;;
21800;SDS011;11062;51.164;16.924;2023-07-13T16:24:21;46.67;;;6.47;;
21800;SDS011;11062;51.164;16.924;2023-07-13T16:26:50;48.38;;;6.15;;
21800;SDS011;11062;51.164;16.924;2023-07-13T16:34:36;157.52;;;15.88;;
21800;SDS011;11062;51.164;16.924;2023-07-13T16:37:12;52.63;;;6.30;;
21800;SDS011;11062;51.164;16.924;2023-07-13T16:39:41;79.57;;;8.63;;
21800;SDS011;11062;51.164;16.924;2023-07-13T16:42:10;83.93;;;9.32;;
21800;SDS011;11062;51.164;16.924;2023-07-13T16:44:36;56.95;;;6.80;;
21800;SDS011;11062;51.164;16.924;2023-07-13T16:47:05;64.15;;;7.82;;
21800;SDS011;11062;51.164;16.924;2023-07-13T16:49:36;55.45;;;6.55;;
21800;SDS011;11062;51.164;16.924;2023-07-13T16:52:03;54.03;;;6.78;;
21800;SDS011;11062;51.164;16.924;2023-07-13T16:54:30;33.10;;;4.53;;
21800;SDS011;11062;51.164;16.924;2023-07-13T16:56:58;30.33;;;4.38;;
21800;SDS011;11062;51.164;16.924;2023-07-13T16:59:33;29.88;;;4.35;;
21800;SDS011;11062;51.164;16.924;2023-07-13T17:02:00;22.88;;;4.05;;
21800;SDS011;11062;51.164;16.924;2023-07-13T17:04:30;53.13;;;6.15;;
21800;SDS011;11062;51.164;16.924;2023-07-13T17:06:57;32.72;;;4.80;;
21800;SDS011;11062;51.164;16.924;2023-07-13T17:09:26;51.63;;;6.22;;
21800;SDS011;11062;51.164;16.924;2023-07-13T17:11:52;29.05;;;3.72;;
21800;SDS011;11062;51.164;16.924;2023-07-13T17:14:20;43.55;;;5.60;;
21800;SDS011;11062;51.164;16.924;2023-07-13T17:16:55;121.05;;;10.05;;
21800;SDS011;11062;51.164;16.924;2023-07-13T17:19:29;64.05;;;6.78;;
21800;SDS011;11062;51.164;16.924;2023-07-13T17:22:02;52.60;;;6.20;;
21800;SDS011;11062;51.164;16.924;2023-07-13T17:24:30;60.25;;;6.93;;
21800;SDS011;11062;51.164;16.924;2023-07-13T17:27:00;26.88;;;4.00;;
21800;SDS011;11062;51.164;16.924;2023-07-13T17:29:49;45.85;;;6.05;;
21800;SDS011;11062;51.164;16.924;2023-07-13T17:32:16;68.57;;;7.95;;
21800;SDS011;11062;51.164;16.924;2023-07-13T17:34:45;84.03;;;9.75;;
21800;SDS011;11062;51.164;16.924;2023-07-13T17:37:15;34.80;;;17.90;;
21800;SDS011;11062;51.164;16.924;2023-07-13T17:39:42;35.95;;;4.93;;
21800;SDS011;11062;51.164;16.924;2023-07-13T17:42:12;34.53;;;4.88;;
21800;SDS011;11062;51.164;16.924;2023-07-13T17:44:38;51.17;;;6.35;;
21800;SDS011;11062;51.164;16.924;2023-07-13T17:47:05;49.92;;;6.00;;
21800;SDS011;11062;51.164;16.924;2023-07-13T17:49:42;53.55;;;6.60;;
21800;SDS011;11062;51.164;16.924;2023-07-13T17:52:13;286.25;;;25.35;;
21800;SDS011;11062;51.164;16.924;2023-07-13T17:54:43;46.10;;;5.77;;
21800;SDS011;11062;51.164;16.924;2023-07-13T17:57:09;68.50;;;7.80;;
21800;SDS011;11062;51.164;16.924;2023-07-13T17:59:35;43.13;;;6.05;;
21800;SDS011;11062;51.164;16.924;2023-07-13T18:02:01;43.17;;;5.50;;
21800;SDS011;11062;51.164;16.924;2023-07-13T18:04:30;38.70;;;5.22;;
21800;SDS011;11062;51.164;16.924;2023-07-13T18:07:07;55.55;;;6.70;;
21800;SDS011;11062;51.164;16.924;2023-07-13T18:09:53;52.90;;;6.32;;